sensor_id;sensor_type;location;lat;lon;timestamp;pressure;altitude;pressure_sealevel;temperature;humidity
61568;BME280;47462;59.172;17.196;2022-10-22T00:00:49;100871.31;;;7.63;82.06
61568;BME280;47462;59.172;17.196;2022-10-22T00:03:14;100903.03;;;7.85;82.08
61568;BME280;47462;59.172;17.196;2022-10-22T00:05:40;100911.72;;;7.84;82.10
61568;BME280;47462;59.172;17.196;2022-10-22T00:08:05;100857.56;;;7.58;81.88
61568;BME280;47462;59.172;17.196;2022-10-22T00:10:30;100903.97;;;7.83;81.87
61568;BME280;47462;59.172;17.196;2022-10-22T00:12:56;100897.91;;;7.81;82.05
61568;BME280;47462;59.172;17.196;2022-10-22T00:15:21;100898.81;;;7.80;81.91
61568;BME280;47462;59.172;17.196;2022-10-22T00:17:47;100895.34;;;7.78;82.02
61568;BME280;47462;59.172;17.196;2022-10-22T00:20:14;100900.53;;;7.79;82.09
61568;BME280;47462;59.172;17.196;2022-10-22T00:22:39;100894.53;;;7.76;82.22
61568;BME280;47462;59.172;17.196;2022-10-22T00:25:05;100801.78;;;7.22;82.21
61568;BME280;47462;59.172;17.196;2022-10-22T00:27:30;100910.94;;;7.78;82.22
61568;BME280;47462;59.172;17.196;2022-10-22T00:29:56;100850.72;;;7.51;82.18
61568;BME280;47462;59.172;17.196;2022-10-22T00:32:21;100833.56;;;7.38;82.19
61568;BME280;47462;59.172;17.196;2022-10-22T00:34:46;100886.72;;;7.76;82.14
61568;BME280;47462;59.172;17.196;2022-10-22T00:37:12;100769.97;;;7.06;82.34
61568;BME280;47462;59.172;17.196;2022-10-22T00:39:37;100863.56;;;7.60;82.36
61568;BME280;47462;59.172;17.196;2022-10-22T00:42:02;100898.91;;;7.74;82.10
61568;BME280;47462;59.172;17.196;2022-10-22T00:47:25;100864.44;;;7.59;82.60
61568;BME280;47462;59.172;17.196;2022-10-22T00:49:52;100882.44;;;7.72;82.39
61568;BME280;47462;59.172;17.196;2022-10-22T00:52:20;100829.25;;;7.40;81.96
61568;BME280;47462;59.172;17.196;2022-10-22T00:54:46;100888.50;;;7.74;81.93
61568;BME280;47462;59.172;17.196;2022-10-22T00:57:11;100819.81;;;7.32;82.46
61568;BME280;47462;59.172;17.196;2022-10-22T00:59:37;100882.41;;;7.75;82.08
61568;BME280;47462;59.172;17.196;2022-10-22T01:02:03;100874.56;;;7.78;82.17
61568;BME280;47462;59.172;17.196;2022-10-22T01:04:28;100853.91;;;7.68;82.01
61568;BME280;47462;59.172;17.196;2022-10-22T01:06:54;100853.91;;;7.68;82.03
61568;BME280;47462;59.172;17.196;2022-10-22T01:09:39;100872.00;;;7.76;81.85
61568;BME280;47462;59.172;17.196;2022-10-22T01:12:50;100874.59;;;7.76;81.79
61568;BME280;47462;59.172;17.196;2022-10-22T01:29:02;100861.50;;;7.84;81.43
61568;BME280;47462;59.172;17.196;2022-10-22T01:31:35;100795.47;;;7.41;81.48
61568;BME280;47462;59.172;17.196;2022-10-22T01:34:03;100796.25;;;7.46;81.51
61568;BME280;47462;59.172;17.196;2022-10-22T01:36:29;100851.25;;;7.73;81.66
61568;BME280;47462;59.172;17.196;2022-10-22T01:38:57;100844.28;;;7.78;81.52
61568;BME280;47462;59.172;17.196;2022-10-22T01:41:26;100821.88;;;7.70;81.34
61568;BME280;47462;59.172;17.196;2022-10-22T01:43:52;100700.03;;;6.96;81.00
61568;BME280;47462;59.172;17.196;2022-10-22T01:46:24;100831.25;;;7.80;81.42
61568;BME280;47462;59.172;17.196;2022-10-22T01:49:22;100778.91;;;7.48;81.49
61568;BME280;47462;59.172;17.196;2022-10-22T01:57:39;100816.81;;;7.60;81.16
61568;BME280;47462;59.172;17.196;2022-10-22T02:00:10;100810.56;;;7.74;81.35
61568;BME280;47462;59.172;17.196;2022-10-22T02:02:57;100800.28;;;7.67;80.81
61568;BME280;47462;59.172;17.196;2022-10-22T02:05:35;100820.84;;;7.81;80.79
61568;BME280;47462;59.172;17.196;2022-10-22T02:08:14;100758.06;;;7.52;80.78
61568;BME280;47462;59.172;17.196;2022-10-22T02:10:42;100817.31;;;7.84;80.89
61568;BME280;47462;59.172;17.196;2022-10-22T02:13:14;100757.28;;;7.48;80.47
61568;BME280;47462;59.172;17.196;2022-10-22T02:15:42;100822.50;;;7.84;80.64
61568;BME280;47462;59.172;17.196;2022-10-22T02:18:09;100753.78;;;7.50;80.45
61568;BME280;47462;59.172;17.196;2022-10-22T02:20:36;100684.28;;;7.09;80.39
61568;BME280;47462;59.172;17.196;2022-10-22T02:23:03;100809.44;;;7.92;80.26
61568;BME280;47462;59.172;17.196;2022-10-22T02:25:33;100809.56;;;7.82;80.58
61568;BME280;47462;59.172;17.196;2022-10-22T02:28:16;100810.34;;;7.88;80.59
61568;BME280;47462;59.172;17.196;2022-10-22T02:30:47;100721.22;;;7.28;80.07
61568;BME280;47462;59.172;17.196;2022-10-22T02:33:28;100774.28;;;7.67;80.25
61568;BME280;47462;59.172;17.196;2022-10-22T02:35:55;100748.44;;;7.60;80.16
61568;BME280;47462;59.172;17.196;2022-10-22T02:38:23;100811.03;;;7.99;79.80
61568;BME280;47462;59.172;17.196;2022-10-22T02:40:49;100805.09;;;7.92;79.88
61568;BME280;47462;59.172;17.196;2022-10-22T02:43:17;100804.97;;;8.00;79.91
61568;BME280;47462;59.172;17.196;2022-10-22T02:45:43;100773.16;;;7.82;79.48
61568;BME280;47462;59.172;17.196;2022-10-22T02:48:08;100741.44;;;7.63;79.31
61568;BME280;47462;59.172;17.196;2022-10-22T02:50:34;100765.34;;;7.84;79.69
61568;BME280;47462;59.172;17.196;2022-10-22T02:53:00;100798.84;;;8.02;79.33
61568;BME280;47462;59.172;17.196;2022-10-22T02:55:25;100808.38;;;8.02;79.19
61568;BME280;47462;59.172;17.196;2022-10-22T02:57:51;100759.34;;;7.82;79.28
61568;BME280;47462;59.172;17.196;2022-10-22T03:00:17;100765.34;;;7.84;79.11
61568;BME280;47462;59.172;17.196;2022-10-22T03:02:42;100796.25;;;8.04;79.08
61568;BME280;47462;59.172;17.196;2022-10-22T03:05:08;100763.72;;;7.80;79.12
61568;BME280;47462;59.172;17.196;2022-10-22T03:07:34;100752.38;;;7.82;78.92
61568;BME280;47462;59.172;17.196;2022-10-22T03:09:59;100792.69;;;8.08;78.85
61568;BME280;47462;59.172;17.196;2022-10-22T03:12:24;100762.69;;;7.89;78.83
61568;BME280;47462;59.172;17.196;2022-10-22T03:14:50;100796.13;;;8.10;78.91
61568;BME280;47462;59.172;17.196;2022-10-22T03:17:15;100729.16;;;7.73;78.92
61568;BME280;47462;59.172;17.196;2022-10-22T03:19:41;100773.84;;;7.95;78.93
61568;BME280;47462;59.172;17.196;2022-10-22T03:22:14;100783.16;;;8.09;78.71
61568;BME280;47462;59.172;17.196;2022-10-22T03:24:43;100773.66;;;8.06;78.80
61568;BME280;47462;59.172;17.196;2022-10-22T03:27:12;100794.28;;;8.17;79.10
61568;BME280;47462;59.172;17.196;2022-10-22T03:29:40;100710.22;;;7.68;78.43
61568;BME280;47462;59.172;17.196;2022-10-22T03:32:06;100758.91;;;8.07;78.78
61568;BME280;47462;59.172;17.196;2022-10-22T03:34:31;100784.72;;;8.17;78.63
61568;BME280;47462;59.172;17.196;2022-10-22T03:36:58;100757.19;;;8.07;78.51
61568;BME280;47462;59.172;17.196;2022-10-22T03:39:26;100759.78;;;8.09;78.64
61568;BME280;47462;59.172;17.196;2022-10-22T03:41:53;100755.38;;;8.11;78.54
61568;BME280;47462;59.172;17.196;2022-10-22T03:44:19;100776.16;;;8.12;78.78
61568;BME280;47462;59.172;17.196;2022-10-22T03:46:45;100699.75;;;7.73;78.58
61568;BME280;47462;59.172;17.196;2022-10-22T03:49:11;100765.69;;;8.17;78.51
61568;BME280;47462;59.172;17.196;2022-10-22T03:51:36;100712.53;;;7.83;78.79
61568;BME280;47462;59.172;17.196;2022-10-22T03:54:02;100742.44;;;8.08;78.59
61568;BME280;47462;59.172;17.196;2022-10-22T03:56:28;100757.97;;;8.12;78.96
61568;BME280;47462;59.172;17.196;2022-10-22T03:58:55;100726.22;;;7.95;78.43
61568;BME280;47462;59.172;17.196;2022-10-22T04:01:21;100687.53;;;7.76;78.85
61568;BME280;47462;59.172;17.196;2022-10-22T04:03:47;100763.78;;;8.25;78.81
61568;BME280;47462;59.172;17.196;2022-10-22T04:06:13;100734.50;;;8.15;78.46
61568;BME280;47462;59.172;17.196;2022-10-22T04:08:40;100749.91;;;8.26;78.78
61568;BME280;47462;59.172;17.196;2022-10-22T04:11:06;100743.00;;;8.25;78.59
61568;BME280;47462;59.172;17.196;2022-10-22T04:13:32;100724.16;;;8.12;78.70
61568;BME280;47462;59.172;17.196;2022-10-22T04:18:36;100642.59;;;7.73;78.62
61568;BME280;47462;59.172;17.196;2022-10-22T04:21:02;100731.84;;;8.18;78.85
61568;BME280;47462;59.172;17.196;2022-10-22T04:23:27;100608.34;;;7.52;78.66
61568;BME280;47462;59.172;17.196;2022-10-22T04:26:00;100707.81;;;8.07;78.67
61568;BME280;47462;59.172;17.196;2022-10-22T04:28:26;100733.44;;;8.27;78.89
61568;BME280;47462;59.172;17.196;2022-10-22T04:30:52;100703.25;;;8.18;78.52
61568;BME280;47462;59.172;17.196;2022-10-22T04:33:18;100677.63;;;8.00;78.70
61568;BME280;47462;59.172;17.196;2022-10-22T04:35:43;100721.25;;;8.29;78.83
61568;BME280;47462;59.172;17.196;2022-10-22T04:38:09;100723.81;;;8.31;78.59
61568;BME280;47462;59.172;17.196;2022-10-22T04:40:34;100687.00;;;8.09;78.71
61568;BME280;47462;59.172;17.196;2022-10-22T04:43:00;100750.63;;;8.34;78.45
61568;BME280;47462;59.172;17.196;2022-10-22T04:45:25;100632.81;;;7.85;78.30
61568;BME280;47462;59.172;17.196;2022-10-22T04:47:51;100687.66;;;8.18;78.47
61568;BME280;47462;59.172;17.196;2022-10-22T04:50:16;100712.56;;;8.30;78.29
61568;BME280;47462;59.172;17.196;2022-10-22T04:52:42;100731.41;;;8.42;78.20
61568;BME280;47462;59.172;17.196;2022-10-22T04:55:07;100685.88;;;8.20;78.40
61568;BME280;47462;59.172;17.196;2022-10-22T04:57:33;100630.22;;;7.85;78.18
61568;BME280;47462;59.172;17.196;2022-10-22T04:59:58;100714.97;;;8.41;78.22
61568;BME280;47462;59.172;17.196;2022-10-22T05:02:24;100692.69;;;8.28;78.28
61568;BME280;47462;59.172;17.196;2022-10-22T05:04:50;100716.72;;;8.39;78.25
61568;BME280;47462;59.172;17.196;2022-10-22T05:07:15;100718.47;;;8.38;78.38
61568;BME280;47462;59.172;17.196;2022-10-22T05:09:40;100720.19;;;8.39;78.31
61568;BME280;47462;59.172;17.196;2022-10-22T05:12:06;100673.00;;;8.14;78.07
61568;BME280;47462;59.172;17.196;2022-10-22T05:14:31;100713.19;;;8.43;78.09
61568;BME280;47462;59.172;17.196;2022-10-22T05:16:57;100710.59;;;8.45;78.12
61568;BME280;47462;59.172;17.196;2022-10-22T05:19:28;100409.19;;;6.64;77.97
61568;BME280;47462;59.172;17.196;2022-10-22T05:22:01;100703.63;;;8.45;77.93
61568;BME280;47462;59.172;17.196;2022-10-22T05:24:28;100680.47;;;8.31;78.05
61568;BME280;47462;59.172;17.196;2022-10-22T05:26:56;100708.00;;;8.45;77.90
61568;BME280;47462;59.172;17.196;2022-10-22T05:29:22;100706.19;;;8.47;78.13
61568;BME280;47462;59.172;17.196;2022-10-22T05:31:48;100669.31;;;8.26;78.00
61568;BME280;47462;59.172;17.196;2022-10-22T05:34:14;100514.28;;;7.35;77.64
61568;BME280;47462;59.172;17.196;2022-10-22T05:36:40;100688.06;;;8.44;77.89
61568;BME280;47462;59.172;17.196;2022-10-22T05:39:05;100696.66;;;8.49;77.78
61568;BME280;47462;59.172;17.196;2022-10-22T05:41:32;100626.38;;;8.07;77.74
61568;BME280;47462;59.172;17.196;2022-10-22T05:43:58;100669.13;;;8.35;77.86
61568;BME280;47462;59.172;17.196;2022-10-22T05:46:24;100695.91;;;8.39;78.02
61568;BME280;47462;59.172;17.196;2022-10-22T05:48:54;100584.53;;;7.75;78.02
61568;BME280;47462;59.172;17.196;2022-10-22T05:51:21;100691.69;;;8.35;77.84
61568;BME280;47462;59.172;17.196;2022-10-22T05:53:51;100573.31;;;7.72;77.75
61568;BME280;47462;59.172;17.196;2022-10-22T05:56:20;100677.75;;;8.37;77.73
61568;BME280;47462;59.172;17.196;2022-10-22T05:58:46;100592.94;;;7.88;77.77
61568;BME280;47462;59.172;17.196;2022-10-22T06:03:45;100645.25;;;8.16;78.04
61568;BME280;47462;59.172;17.196;2022-10-22T06:06:32;100711.34;;;8.50;77.88
61568;BME280;47462;59.172;17.196;2022-10-22T06:09:33;100702.78;;;8.45;78.06
61568;BME280;47462;59.172;17.196;2022-10-22T06:11:50;100704.38;;;8.52;77.78
61568;BME280;47462;59.172;17.196;2022-10-22T06:14:16;100548.47;;;7.60;77.70
61568;BME280;47462;59.172;17.196;2022-10-22T06:16:42;100704.25;;;8.58;77.65
61568;BME280;47462;59.172;17.196;2022-10-22T06:19:12;100692.03;;;8.62;77.65
61568;BME280;47462;59.172;17.196;2022-10-22T06:21:38;100693.69;;;8.66;77.57
61568;BME280;47462;59.172;17.196;2022-10-22T06:24:04;100688.44;;;8.69;77.55
61568;BME280;47462;59.172;17.196;2022-10-22T06:26:29;100692.72;;;8.71;77.23
61568;BME280;47462;59.172;17.196;2022-10-22T06:29:02;100567.63;;;7.99;77.26
61568;BME280;47462;59.172;17.196;2022-10-22T06:31:29;100643.78;;;8.47;77.26
61568;BME280;47462;59.172;17.196;2022-10-22T06:34:06;100692.59;;;8.78;77.29
61568;BME280;47462;59.172;17.196;2022-10-22T06:36:35;100645.44;;;8.51;77.07
61568;BME280;47462;59.172;17.196;2022-10-22T06:39:02;100691.59;;;8.82;76.95
61568;BME280;47462;59.172;17.196;2022-10-22T06:41:28;100705.47;;;8.84;77.31
61568;BME280;47462;59.172;17.196;2022-10-22T06:43:54;100635.97;;;8.47;76.75
61568;BME280;47462;59.172;17.196;2022-10-22T06:46:22;100665.06;;;8.66;76.68
61568;BME280;47462;59.172;17.196;2022-10-22T06:48:48;100698.59;;;8.80;77.03
61568;BME280;47462;59.172;17.196;2022-10-22T06:51:14;100694.13;;;8.86;76.74
61568;BME280;47462;59.172;17.196;2022-10-22T06:53:40;100706.22;;;8.89;76.69
61568;BME280;47462;59.172;17.196;2022-10-22T06:56:18;100627.22;;;8.51;76.75
61568;BME280;47462;59.172;17.196;2022-10-22T06:58:51;100659.88;;;8.66;76.61
61568;BME280;47462;59.172;17.196;2022-10-22T07:01:19;100588.75;;;8.25;76.50
61568;BME280;47462;59.172;17.196;2022-10-22T07:03:46;100659.78;;;8.70;76.58
61568;BME280;47462;59.172;17.196;2022-10-22T07:06:13;100628.03;;;8.53;76.69
61568;BME280;47462;59.172;17.196;2022-10-22T07:08:41;100638.38;;;8.57;76.72
61568;BME280;47462;59.172;17.196;2022-10-22T07:11:12;100702.56;;;8.98;76.60
61568;BME280;47462;59.172;17.196;2022-10-22T07:13:39;100695.91;;;8.84;76.54
61568;BME280;47462;59.172;17.196;2022-10-22T07:16:17;100656.22;;;8.74;76.59
61568;BME280;47462;59.172;17.196;2022-10-22T07:18:44;100666.38;;;8.87;76.43
61568;BME280;47462;59.172;17.196;2022-10-22T07:21:12;100698.19;;;8.98;76.40
61568;BME280;47462;59.172;17.196;2022-10-22T07:23:39;100689.53;;;8.98;76.67
61568;BME280;47462;59.172;17.196;2022-10-22T07:26:06;100697.31;;;8.99;76.57
61568;BME280;47462;59.172;17.196;2022-10-22T07:28:39;100697.31;;;8.99;76.69
61568;BME280;47462;59.172;17.196;2022-10-22T07:31:10;100700.78;;;9.00;76.62
61568;BME280;47462;59.172;17.196;2022-10-22T07:33:38;100682.50;;;9.01;76.67
61568;BME280;47462;59.172;17.196;2022-10-22T07:36:07;100677.81;;;8.78;76.69
61568;BME280;47462;59.172;17.196;2022-10-22T07:38:37;100668.19;;;8.82;76.56
61568;BME280;47462;59.172;17.196;2022-10-22T07:41:03;100671.47;;;8.91;76.77
61568;BME280;47462;59.172;17.196;2022-10-22T07:43:29;100698.28;;;8.95;76.90
61568;BME280;47462;59.172;17.196;2022-10-22T07:45:55;100693.81;;;9.00;76.69
61568;BME280;47462;59.172;17.196;2022-10-22T07:48:27;100714.56;;;9.03;76.49
61568;BME280;47462;59.172;17.196;2022-10-22T07:50:53;100697.19;;;9.05;76.70
61568;BME280;47462;59.172;17.196;2022-10-22T07:53:19;100694.72;;;8.99;77.06
61568;BME280;47462;59.172;17.196;2022-10-22T07:55:49;100373.78;;;7.09;76.76
61568;BME280;47462;59.172;17.196;2022-10-22T07:58:17;100643.38;;;8.67;77.03
61568;BME280;47462;59.172;17.196;2022-10-22T08:00:44;100705.63;;;9.15;77.16
61568;BME280;47462;59.172;17.196;2022-10-22T08:03:11;100688.47;;;9.06;77.13
61568;BME280;47462;59.172;17.196;2022-10-22T08:05:37;100691.88;;;9.10;76.79
61568;BME280;47462;59.172;17.196;2022-10-22T08:08:05;100684.84;;;9.14;76.48
61568;BME280;47462;59.172;17.196;2022-10-22T08:10:31;100585.63;;;8.51;76.70
61568;BME280;47462;59.172;17.196;2022-10-22T08:12:57;100689.19;;;9.13;76.76
61568;BME280;47462;59.172;17.196;2022-10-22T08:15:24;100681.34;;;9.15;76.77
61568;BME280;47462;59.172;17.196;2022-10-22T08:17:52;100636.78;;;8.89;76.74
61568;BME280;47462;59.172;17.196;2022-10-22T08:20:18;100698.31;;;9.33;76.58
61568;BME280;47462;59.172;17.196;2022-10-22T08:22:43;100694.19;;;9.22;76.95
61568;BME280;47462;59.172;17.196;2022-10-22T08:25:09;100534.88;;;8.31;76.65
61568;BME280;47462;59.172;17.196;2022-10-22T08:27:35;100695.91;;;9.23;76.97
61568;BME280;47462;59.172;17.196;2022-10-22T08:30:04;100698.34;;;9.31;76.74
61568;BME280;47462;59.172;17.196;2022-10-22T08:32:31;100702.53;;;9.37;76.64
61568;BME280;47462;59.172;17.196;2022-10-22T08:34:57;100705.03;;;9.41;76.59
61568;BME280;47462;59.172;17.196;2022-10-22T08:37:22;100687.91;;;9.31;76.46
61568;BME280;47462;59.172;17.196;2022-10-22T08:39:48;100651.59;;;8.87;76.63
61568;BME280;47462;59.172;17.196;2022-10-22T08:42:44;100630.59;;;8.95;76.36
61568;BME280;47462;59.172;17.196;2022-10-22T08:48:53;100704.94;;;9.44;76.50
61568;BME280;47462;59.172;17.196;2022-10-22T08:51:23;100626.03;;;9.05;76.58
61568;BME280;47462;59.172;17.196;2022-10-22T08:56:51;100650.72;;;9.24;76.38
61568;BME280;47462;59.172;17.196;2022-10-22T08:59:35;100696.81;;;9.57;76.37
61568;BME280;47462;59.172;17.196;2022-10-22T09:02:13;100684.94;;;9.46;76.14
61568;BME280;47462;59.172;17.196;2022-10-22T09:04:49;100684.63;;;9.59;76.38
61568;BME280;47462;59.172;17.196;2022-10-22T09:07:19;100687.22;;;9.60;76.82
61568;BME280;47462;59.172;17.196;2022-10-22T09:09:49;100705.59;;;9.54;76.73
61568;BME280;47462;59.172;17.196;2022-10-22T09:12:17;100695.72;;;9.67;76.52
61568;BME280;47462;59.172;17.196;2022-10-22T09:14:47;100534.91;;;8.70;76.61
61568;BME280;47462;59.172;17.196;2022-10-22T09:22:45;100626.03;;;9.41;76.23
61568;BME280;47462;59.172;17.196;2022-10-22T09:25:20;100669.56;;;9.70;76.62
61568;BME280;47462;59.172;17.196;2022-10-22T09:27:46;100666.94;;;9.72;76.77
61568;BME280;47462;59.172;17.196;2022-10-22T09:30:30;100624.06;;;9.49;76.78
61568;BME280;47462;59.172;17.196;2022-10-22T09:35:55;100665.09;;;9.75;76.55
61568;BME280;47462;59.172;17.196;2022-10-22T09:38:31;100571.72;;;9.25;76.49
61568;BME280;47462;59.172;17.196;2022-10-22T09:41:00;100598.97;;;9.46;76.98
61568;BME280;47462;59.172;17.196;2022-10-22T09:43:29;100597.34;;;9.42;76.48
61568;BME280;47462;59.172;17.196;2022-10-22T09:46:06;100646.69;;;9.81;76.49
61568;BME280;47462;59.172;17.196;2022-10-22T09:48:35;100665.34;;;9.99;76.51
61568;BME280;47462;59.172;17.196;2022-10-22T09:51:19;100667.88;;;10.02;76.62
61568;BME280;47462;59.172;17.196;2022-10-22T09:53:56;100609.59;;;9.72;76.47
61568;BME280;47462;59.172;17.196;2022-10-22T09:56:34;100662.53;;;10.07;76.75
61568;BME280;47462;59.172;17.196;2022-10-22T09:59:01;100655.41;;;10.13;76.31
61568;BME280;47462;59.172;17.196;2022-10-22T10:01:35;100651.00;;;10.15;76.40
61568;BME280;47462;59.172;17.196;2022-10-22T10:04:07;100647.41;;;10.20;76.29
61568;BME280;47462;59.172;17.196;2022-10-22T10:06:35;100614.72;;;10.08;76.64
61568;BME280;47462;59.172;17.196;2022-10-22T10:09:01;100627.47;;;10.18;76.95
61568;BME280;47462;59.172;17.196;2022-10-22T10:12:05;100555.72;;;9.72;76.98
61568;BME280;47462;59.172;17.196;2022-10-22T10:18:00;100645.38;;;10.31;77.53
61568;BME280;47462;59.172;17.196;2022-10-22T10:20:39;100643.59;;;10.33;77.95
61568;BME280;47462;59.172;17.196;2022-10-22T10:34:41;100631.13;;;10.43;78.01
61568;BME280;47462;59.172;17.196;2022-10-22T10:42:35;100582.63;;;10.37;77.59
61568;BME280;47462;59.172;17.196;2022-10-22T10:48:10;100617.59;;;10.60;77.90
61568;BME280;47462;59.172;17.196;2022-10-22T10:51:02;100617.09;;;10.47;78.02
61568;BME280;47462;59.172;17.196;2022-10-22T11:01:23;100583.50;;;10.36;79.03
61568;BME280;47462;59.172;17.196;2022-10-22T11:06:55;100562.25;;;10.18;79.47
61568;BME280;47462;59.172;17.196;2022-10-22T11:09:23;100605.06;;;10.41;79.73
61568;BME280;47462;59.172;17.196;2022-10-22T11:11:58;100595.53;;;10.42;79.54
61568;BME280;47462;59.172;17.196;2022-10-22T11:14:37;100467.31;;;9.66;79.63
61568;BME280;47462;59.172;17.196;2022-10-22T11:17:14;100594.56;;;10.44;79.71
61568;BME280;47462;59.172;17.196;2022-10-22T11:19:48;100592.78;;;10.46;80.09
61568;BME280;47462;59.172;17.196;2022-10-22T11:22:21;100590.13;;;10.48;80.16
61568;BME280;47462;59.172;17.196;2022-10-22T11:30:04;100587.03;;;10.63;80.36
61568;BME280;47462;59.172;17.196;2022-10-22T11:32:34;100578.78;;;10.77;80.38
61568;BME280;47462;59.172;17.196;2022-10-22T11:35:03;100503.44;;;10.38;80.08
61568;BME280;47462;59.172;17.196;2022-10-22T11:37:31;100606.31;;;10.87;80.02
61568;BME280;47462;59.172;17.196;2022-10-22T11:40:15;100578.38;;;10.89;80.15
61568;BME280;47462;59.172;17.196;2022-10-22T11:42:56;100545.03;;;10.71;79.95
61568;BME280;47462;59.172;17.196;2022-10-22T11:48:13;100571.19;;;10.96;79.98
61568;BME280;47462;59.172;17.196;2022-10-22T11:58:34;100526.63;;;10.47;80.52
61568;BME280;47462;59.172;17.196;2022-10-22T12:06:21;100554.84;;;10.64;80.90
61568;BME280;47462;59.172;17.196;2022-10-22T12:17:09;100543.22;;;10.73;80.85
61568;BME280;47462;59.172;17.196;2022-10-22T12:19:49;100537.16;;;10.73;80.76
61568;BME280;47462;59.172;17.196;2022-10-22T12:22:20;100526.72;;;10.73;80.96
61568;BME280;47462;59.172;17.196;2022-10-22T12:24:50;100537.91;;;10.76;80.99
61568;BME280;47462;59.172;17.196;2022-10-22T12:27:26;100488.22;;;10.52;81.27
61568;BME280;47462;59.172;17.196;2022-10-22T12:29:56;100538.81;;;10.75;81.29
61568;BME280;47462;59.172;17.196;2022-10-22T12:32:25;100489.31;;;10.45;81.17
61568;BME280;47462;59.172;17.196;2022-10-22T12:34:56;100531.09;;;10.72;81.35
61568;BME280;47462;59.172;17.196;2022-10-22T12:37:34;100530.16;;;10.73;81.12
61568;BME280;47462;59.172;17.196;2022-10-22T12:40:14;100530.13;;;10.75;81.36
61568;BME280;47462;59.172;17.196;2022-10-22T12:42:53;100496.09;;;10.51;81.29
61568;BME280;47462;59.172;17.196;2022-10-22T12:45:20;100535.25;;;10.78;81.53
61568;BME280;47462;59.172;17.196;2022-10-22T12:47:50;100494.81;;;10.64;81.44
61568;BME280;47462;59.172;17.196;2022-10-22T12:50:19;100432.22;;;10.36;81.07
61568;BME280;47462;59.172;17.196;2022-10-22T12:52:46;100426.38;;;10.28;80.98
61568;BME280;47462;59.172;17.196;2022-10-22T12:55:17;100486.56;;;10.77;81.31
61568;BME280;47462;59.172;17.196;2022-10-22T12:57:46;100497.59;;;10.85;81.12
61568;BME280;47462;59.172;17.196;2022-10-22T13:00:26;100512.16;;;10.92;81.05
61568;BME280;47462;59.172;17.196;2022-10-22T13:02:52;100512.13;;;10.94;81.05
61568;BME280;47462;59.172;17.196;2022-10-22T13:07:51;100459.31;;;10.59;80.88
61568;BME280;47462;59.172;17.196;2022-10-22T13:10:26;100487.41;;;10.77;80.71
61568;BME280;47462;59.172;17.196;2022-10-22T13:12:57;100513.91;;;10.92;81.07
61568;BME280;47462;59.172;17.196;2022-10-22T13:15:35;100439.63;;;10.48;80.74
61568;BME280;47462;59.172;17.196;2022-10-22T13:18:14;100488.91;;;10.58;81.24
61568;BME280;47462;59.172;17.196;2022-10-22T13:21:00;100455.09;;;10.55;81.19
61568;BME280;47462;59.172;17.196;2022-10-22T13:23:29;100493.94;;;10.91;81.38
61568;BME280;47462;59.172;17.196;2022-10-22T13:26:13;100499.28;;;10.87;81.18
61568;BME280;47462;59.172;17.196;2022-10-22T13:28:40;100436.13;;;10.49;81.19
61568;BME280;47462;59.172;17.196;2022-10-22T13:31:14;100485.41;;;10.85;81.28
61568;BME280;47462;59.172;17.196;2022-10-22T13:33:43;100494.78;;;10.91;81.19
61568;BME280;47462;59.172;17.196;2022-10-22T13:36:16;100414.44;;;10.47;81.15
61568;BME280;47462;59.172;17.196;2022-10-22T13:38:42;100490.31;;;10.95;81.26
61568;BME280;47462;59.172;17.196;2022-10-22T13:41:26;100491.34;;;10.91;81.36
61568;BME280;47462;59.172;17.196;2022-10-22T13:43:53;100395.91;;;10.28;81.23
61568;BME280;47462;59.172;17.196;2022-10-22T13:46:19;100411.25;;;10.39;81.34
61568;BME280;47462;59.172;17.196;2022-10-22T13:48:47;100494.84;;;10.89;81.39
61568;BME280;47462;59.172;17.196;2022-10-22T13:51:19;100430.81;;;10.52;81.30
61568;BME280;47462;59.172;17.196;2022-10-22T13:53:46;100367.03;;;10.08;81.33
61568;BME280;47462;59.172;17.196;2022-10-22T13:56:14;100421.63;;;10.41;81.57
61568;BME280;47462;59.172;17.196;2022-10-22T13:58:41;100473.69;;;10.72;81.56
61568;BME280;47462;59.172;17.196;2022-10-22T14:01:17;100416.50;;;10.38;81.61
61568;BME280;47462;59.172;17.196;2022-10-22T14:03:44;100496.88;;;10.81;81.65
61568;BME280;47462;59.172;17.196;2022-10-22T14:06:14;100476.50;;;10.66;81.60
61568;BME280;47462;59.172;17.196;2022-10-22T14:08:42;100472.97;;;10.67;81.74
61568;BME280;47462;59.172;17.196;2022-10-22T14:11:11;100495.31;;;10.76;81.90
61568;BME280;47462;59.172;17.196;2022-10-22T14:13:37;100366.13;;;9.80;81.89
61568;BME280;47462;59.172;17.196;2022-10-22T14:16:05;100456.00;;;10.53;81.52
61568;BME280;47462;59.172;17.196;2022-10-22T14:18:31;100445.06;;;10.42;81.66
61568;BME280;47462;59.172;17.196;2022-10-22T14:20:59;100492.84;;;10.71;82.14
61568;BME280;47462;59.172;17.196;2022-10-22T14:23:29;100471.53;;;10.58;81.97
61568;BME280;47462;59.172;17.196;2022-10-22T14:25:56;100453.63;;;10.46;82.27
61568;BME280;47462;59.172;17.196;2022-10-22T14:28:23;100419.44;;;10.27;82.14
61568;BME280;47462;59.172;17.196;2022-10-22T14:30:51;100452.69;;;10.48;82.14
61568;BME280;47462;59.172;17.196;2022-10-22T14:33:23;100466.72;;;10.44;82.29
61568;BME280;47462;59.172;17.196;2022-10-22T14:35:49;100486.97;;;10.64;82.59
61568;BME280;47462;59.172;17.196;2022-10-22T14:38:15;100494.28;;;10.53;82.92
61568;BME280;47462;59.172;17.196;2022-10-22T14:40:41;100495.84;;;10.59;82.79
61568;BME280;47462;59.172;17.196;2022-10-22T14:43:15;100495.81;;;10.60;82.90
61568;BME280;47462;59.172;17.196;2022-10-22T14:45:42;100485.75;;;10.48;83.05
61568;BME280;47462;59.172;17.196;2022-10-22T14:48:08;100475.38;;;10.46;83.25